createdAt,value
2024-05-09T00:00:39.990Z,16.42
2024-05-09T00:03:09.000Z,22.35
2024-05-09T00:05:38.728Z,16.85
2024-05-09T00:08:06.440Z,19.52
2024-05-09T00:10:37.550Z,19.77
2024-05-09T00:13:07.656Z,18.67
2024-05-09T00:15:36.969Z,17.17
2024-05-09T00:18:05.299Z,16.75
2024-05-09T00:20:38.292Z,17.63
2024-05-09T00:23:09.436Z,19.23
2024-05-09T00:25:37.644Z,24.27
2024-05-09T00:28:05.419Z,21.77
2024-05-09T00:30:35.415Z,21.83
2024-05-09T00:33:05.889Z,16.65
2024-05-09T00:35:33.694Z,18.13
2024-05-09T00:38:01.332Z,17.40
2024-05-09T00:40:39.089Z,22.27
2024-05-09T00:43:08.557Z,25.75
2024-05-09T00:45:36.655Z,19.83
2024-05-09T00:48:07.094Z,21.88
2024-05-09T00:50:37.508Z,19.08
2024-05-09T00:53:10.884Z,19.90
2024-05-09T00:58:05.870Z,23.73
2024-05-09T01:00:38.987Z,21.08
2024-05-09T01:03:11.668Z,20.27
2024-05-09T01:05:41.134Z,25.85
2024-05-09T01:08:09.723Z,20.75
2024-05-09T01:10:37.355Z,20.88
2024-05-09T01:13:05.412Z,18.48
2024-05-09T01:15:33.854Z,20.35
2024-05-09T01:18:09.580Z,24.80
2024-05-09T01:20:42.872Z,24.38
2024-05-09T01:23:14.132Z,18.20
2024-05-09T01:25:42.655Z,21.17
2024-05-09T01:28:09.798Z,17.45
2024-05-09T01:30:37.786Z,25.75
2024-05-09T01:33:08.540Z,18.80
2024-05-09T01:35:37.373Z,25.88
2024-05-09T01:38:05.005Z,19.05
2024-05-09T01:40:37.633Z,15.05
2024-05-09T01:43:08.282Z,27.27
2024-05-09T01:45:35.836Z,27.45
2024-05-09T01:48:03.175Z,18.20
2024-05-09T01:53:01.451Z,24.25
2024-05-09T01:55:28.163Z,17.95
2024-05-09T01:57:54.749Z,22.50
2024-05-09T02:00:33.769Z,17.20
2024-05-09T02:03:08.760Z,15.05
2024-05-09T02:05:36.578Z,20.42
2024-05-09T02:08:04.159Z,19.17
2024-05-09T02:10:32.951Z,20.58
2024-05-09T02:13:01.188Z,21.52
2024-05-09T02:15:28.495Z,19.17
2024-05-09T02:17:55.408Z,16.90
2024-05-09T02:20:30.324Z,15.07
2024-05-09T02:23:05.010Z,17.23
2024-05-09T02:25:32.913Z,18.13
2024-05-09T02:27:59.712Z,18.20
2024-05-09T02:30:38.419Z,19.05
2024-05-09T02:33:09.565Z,21.67
2024-05-09T02:35:37.602Z,16.55
2024-05-09T02:38:04.984Z,23.95
2024-05-09T02:40:37.103Z,19.58
2024-05-09T02:43:07.676Z,20.60
2024-05-09T02:45:34.708Z,22.48
2024-05-09T02:50:34.775Z,26.77
2024-05-09T02:53:08.623Z,23.25
2024-05-09T02:55:37.575Z,20.95
2024-05-09T02:58:04.732Z,22.23
2024-05-09T03:00:38.365Z,22.85
2024-05-09T03:03:10.353Z,25.45
2024-05-09T03:05:40.871Z,20.15
2024-05-09T03:08:08.251Z,19.27
2024-05-09T03:10:37.544Z,17.25
2024-05-09T03:13:15.400Z,20.73
2024-05-09T03:15:44.500Z,20.00
2024-05-09T03:18:12.726Z,22.60
2024-05-09T03:20:40.086Z,17.42
2024-05-09T03:23:09.150Z,19.35
2024-05-09T03:25:36.816Z,20.40
2024-05-09T03:28:04.320Z,25.33
2024-05-09T03:33:12.201Z,24.45
2024-05-09T03:35:40.855Z,30.20
2024-05-09T03:38:08.673Z,23.33
2024-05-09T03:40:35.733Z,28.00
2024-05-09T03:43:02.403Z,23.50
2024-05-09T03:47:56.544Z,28.77
2024-05-09T03:50:30.065Z,21.90
2024-05-09T03:53:01.999Z,27.00
2024-05-09T03:55:29.822Z,19.35
2024-05-09T03:57:56.953Z,22.20
2024-05-09T04:00:31.354Z,22.67
2024-05-09T04:03:06.692Z,36.58
2024-05-09T04:05:35.401Z,48.13
2024-05-09T04:10:33.463Z,52.80
2024-05-09T04:13:03.140Z,34.92
2024-05-09T04:15:30.316Z,29.08
2024-05-09T04:17:57.852Z,21.00
2024-05-09T04:20:35.557Z,22.63
2024-05-09T04:23:06.988Z,20.17
2024-05-09T04:25:34.369Z,23.02
2024-05-09T04:30:36.472Z,19.52
2024-05-09T04:33:07.490Z,20.15
2024-05-09T04:35:35.574Z,26.42
2024-05-09T04:38:04.668Z,20.05
2024-05-09T04:40:35.960Z,22.75
2024-05-09T04:43:14.295Z,21.02
2024-05-09T04:45:41.557Z,21.17
2024-05-09T04:48:09.288Z,22.23
2024-05-09T04:50:38.824Z,22.00
2024-05-09T04:53:08.660Z,23.00
2024-05-09T04:55:37.256Z,23.15
2024-05-09T04:58:04.924Z,25.90
2024-05-09T05:00:36.926Z,17.27
2024-05-09T05:03:10.283Z,20.77
2024-05-09T05:05:42.880Z,19.15
2024-05-09T05:08:18.631Z,17.83
2024-05-09T05:10:47.081Z,19.50
2024-05-09T05:13:22.237Z,27.38
2024-05-09T05:15:56.063Z,19.65
2024-05-09T05:18:24.259Z,20.80
2024-05-09T05:20:51.894Z,20.90
2024-05-09T05:23:20.256Z,17.35
2024-05-09T05:25:48.812Z,20.90
2024-05-09T05:28:17.427Z,22.10
2024-05-09T05:30:44.265Z,19.90
2024-05-09T05:33:13.094Z,20.00
2024-05-09T05:35:41.236Z,21.48
2024-05-09T05:38:08.688Z,20.80
2024-05-09T05:40:40.522Z,18.77
2024-05-09T05:43:09.880Z,22.77
2024-05-09T05:45:37.465Z,20.02
2024-05-09T05:48:06.379Z,23.50
2024-05-09T05:50:36.884Z,21.83
2024-05-09T05:53:07.506Z,23.08
2024-05-09T05:55:36.373Z,22.55
2024-05-09T05:58:03.610Z,19.73
2024-05-09T06:00:37.862Z,22.73
2024-05-09T06:03:10.748Z,24.42
2024-05-09T06:05:43.340Z,22.65
2024-05-09T06:08:10.858Z,22.27
2024-05-09T06:10:40.170Z,22.42
2024-05-09T06:13:12.568Z,28.38
2024-05-09T06:15:40.379Z,25.23
2024-05-09T06:18:09.078Z,27.58
2024-05-09T06:20:38.106Z,26.70
2024-05-09T06:23:06.939Z,28.35
2024-05-09T06:25:34.518Z,46.85
2024-05-09T06:28:01.654Z,45.95
2024-05-09T06:30:37.117Z,47.53
2024-05-09T06:33:09.379Z,50.30
2024-05-09T06:35:37.250Z,52.85
2024-05-09T06:38:04.661Z,50.22
2024-05-09T06:40:37.787Z,53.88
2024-05-09T06:43:14.463Z,53.45
2024-05-09T06:45:41.799Z,51.83
2024-05-09T06:50:38.435Z,50.22
2024-05-09T06:53:07.475Z,58.42
2024-05-09T06:55:34.358Z,56.67
2024-05-09T06:58:01.092Z,46.10
2024-05-09T07:00:35.469Z,44.60
2024-05-09T07:03:16.402Z,50.15
2024-05-09T07:05:47.249Z,48.08
2024-05-09T07:08:15.381Z,47.97
2024-05-09T07:10:42.830Z,49.22
2024-05-09T07:13:10.561Z,46.25
2024-05-09T07:15:37.845Z,46.00
2024-05-09T07:18:18.211Z,51.60
2024-05-09T07:20:48.045Z,47.70
2024-05-09T07:23:16.435Z,52.60
2024-05-09T07:25:43.660Z,44.28
2024-05-09T07:28:13.476Z,47.08
2024-05-09T07:30:41.425Z,47.70
2024-05-09T07:33:08.519Z,47.33
2024-05-09T07:35:35.459Z,45.75
2024-05-09T07:38:02.268Z,42.65
2024-05-09T07:40:35.571Z,45.03
2024-05-09T07:43:04.698Z,44.03
2024-05-09T07:45:48.125Z,46.30
2024-05-09T07:53:39.183Z,42.00
2024-05-09T07:56:09.995Z,44.28
2024-05-09T07:58:37.983Z,45.38
2024-05-09T08:01:05.099Z,42.22
2024-05-09T08:03:32.460Z,46.40
2024-05-09T08:05:59.381Z,42.03
2024-05-09T08:08:26.301Z,39.08
2024-05-09T08:10:53.384Z,38.15
2024-05-09T08:13:20.356Z,43.22
2024-05-09T08:15:47.250Z,38.35
2024-05-09T08:20:41.888Z,39.92
2024-05-09T08:23:09.128Z,40.03
2024-05-09T08:25:36.673Z,35.55
2024-05-09T08:28:04.816Z,40.80
2024-05-09T08:30:36.753Z,38.63
2024-05-09T08:33:06.766Z,35.35
2024-05-09T08:35:34.855Z,37.25
2024-05-09T08:38:02.988Z,35.97
2024-05-09T08:40:35.647Z,40.08
2024-05-09T08:43:11.049Z,38.55
2024-05-09T08:45:43.136Z,33.67
2024-05-09T08:48:12.896Z,38.25
2024-05-09T08:50:41.207Z,36.25
2024-05-09T08:53:08.863Z,33.08
2024-05-09T08:55:40.173Z,34.33
2024-05-09T08:58:14.276Z,35.17
2024-05-09T09:00:43.015Z,32.70
2024-05-09T09:03:14.715Z,32.78
2024-05-09T09:05:51.115Z,33.65
2024-05-09T09:08:18.577Z,33.33
2024-05-09T09:10:47.578Z,30.73
2024-05-09T09:13:15.493Z,32.45
2024-05-09T09:15:49.941Z,27.85
2024-05-09T09:18:18.298Z,27.55
2024-05-09T09:20:45.618Z,26.33
2024-05-09T09:23:12.525Z,28.02
2024-05-09T09:25:40.577Z,27.00
2024-05-09T09:28:08.477Z,27.63
2024-05-09T09:30:45.935Z,23.17
2024-05-09T09:33:13.427Z,27.52
2024-05-09T09:35:40.648Z,26.70
2024-05-09T09:38:08.163Z,24.45
2024-05-09T09:40:40.983Z,23.45
2024-05-09T09:43:18.241Z,18.98
2024-05-09T09:45:47.973Z,20.15
2024-05-09T09:48:16.275Z,17.63
2024-05-09T09:50:43.375Z,17.10
2024-05-09T09:53:12.614Z,15.77
2024-05-09T09:55:40.162Z,16.00
2024-05-09T09:58:09.555Z,9.77
2024-05-09T10:00:39.300Z,11.38
2024-05-09T10:03:06.749Z,9.35
2024-05-09T10:05:34.450Z,8.43
2024-05-09T10:08:06.524Z,8.35
2024-05-09T10:10:35.650Z,7.22
2024-05-09T10:13:04.147Z,6.97
2024-05-09T10:15:42.861Z,7.43
2024-05-09T10:18:10.003Z,8.88
2024-05-09T10:20:44.290Z,7.88
2024-05-09T10:23:28.287Z,7.88
2024-05-09T10:26:03.777Z,8.05
2024-05-09T10:28:32.795Z,8.25
2024-05-09T10:31:10.530Z,7.07
2024-05-09T10:33:52.472Z,7.57
2024-05-09T10:36:26.583Z,10.05
2024-05-09T10:38:54.709Z,7.68
2024-05-09T10:41:23.383Z,9.32
2024-05-09T10:43:51.172Z,10.32
2024-05-09T10:46:21.729Z,7.93
2024-05-09T10:48:48.887Z,9.13
2024-05-09T10:51:19.352Z,10.35
2024-05-09T10:53:48.024Z,9.65
2024-05-09T10:56:15.077Z,8.07
2024-05-09T10:58:41.953Z,9.40
2024-05-09T11:01:10.380Z,10.27
2024-05-09T11:03:38.259Z,11.88
2024-05-09T11:06:06.526Z,7.80
2024-05-09T11:08:34.767Z,9.35
2024-05-09T11:11:06.746Z,8.63
2024-05-09T11:13:36.060Z,7.00
2024-05-09T11:16:03.865Z,6.88
2024-05-09T11:18:35.486Z,5.97
2024-05-09T11:21:12.595Z,6.03
2024-05-09T11:23:40.202Z,6.72
2024-05-09T11:26:07.428Z,5.38
2024-05-09T11:28:34.154Z,5.53
2024-05-09T11:31:10.276Z,5.32
2024-05-09T11:33:38.737Z,5.13
2024-05-09T11:36:06.702Z,3.47
2024-05-09T11:38:33.816Z,4.07
2024-05-09T11:41:02.064Z,6.35
2024-05-09T11:43:28.871Z,5.20
2024-05-09T11:45:57.596Z,3.97
2024-05-09T11:48:25.783Z,5.25
2024-05-09T11:50:54.337Z,5.32
2024-05-09T11:53:20.983Z,4.25
2024-05-09T11:55:49.667Z,4.57
2024-05-09T11:58:18.039Z,4.88
2024-05-09T12:00:45.839Z,3.08
2024-05-09T12:03:13.228Z,4.13
2024-05-09T12:05:40.408Z,4.30
2024-05-09T12:08:07.590Z,5.38
2024-05-09T12:10:36.198Z,4.88
2024-05-09T12:13:06.181Z,3.08
2024-05-09T12:15:37.447Z,3.78
2024-05-09T12:18:06.254Z,4.72
2024-05-09T12:20:37.665Z,3.33
2024-05-09T12:23:08.399Z,2.70
2024-05-09T12:25:36.734Z,2.90
2024-05-09T12:28:05.926Z,4.47
2024-05-09T12:30:37.497Z,3.33
2024-05-09T12:33:12.537Z,3.20
2024-05-09T12:35:43.232Z,3.38
2024-05-09T12:38:12.182Z,3.58
2024-05-09T12:40:39.724Z,2.60
2024-05-09T12:43:09.588Z,2.67
2024-05-09T12:45:37.912Z,3.35
2024-05-09T12:48:08.386Z,4.28
2024-05-09T12:50:35.820Z,3.25
2024-05-09T12:53:04.218Z,2.60
2024-05-09T12:55:40.347Z,3.40
2024-05-09T12:58:16.388Z,3.08
2024-05-09T13:00:44.243Z,3.83
2024-05-09T13:03:11.449Z,3.72
2024-05-09T13:05:41.361Z,2.60
2024-05-09T13:08:08.961Z,2.58
2024-05-09T13:10:36.870Z,3.10
2024-05-09T13:13:03.854Z,2.60
2024-05-09T13:15:31.629Z,2.20
2024-05-09T13:18:02.636Z,2.20
2024-05-09T13:20:34.300Z,2.55
2024-05-09T13:23:03.937Z,3.70
2024-05-09T13:25:30.884Z,2.35
2024-05-09T13:27:57.860Z,2.67
2024-05-09T13:30:33.632Z,2.33
2024-05-09T13:33:07.021Z,4.35
2024-05-09T13:35:35.789Z,3.05
2024-05-09T13:38:03.698Z,2.40
2024-05-09T13:40:34.462Z,2.92
2024-05-09T13:43:06.061Z,2.30
2024-05-09T13:45:33.618Z,1.50
2024-05-09T13:48:02.581Z,3.17
2024-05-09T13:50:35.736Z,3.25
2024-05-09T13:53:06.449Z,2.15
2024-05-09T13:55:34.905Z,2.95
2024-05-09T13:58:02.034Z,2.28
2024-05-09T14:00:41.825Z,2.45
2024-05-09T14:03:14.592Z,2.75
2024-05-09T14:05:41.936Z,3.10
2024-05-09T14:08:09.690Z,2.30
2024-05-09T14:10:43.209Z,3.38
2024-05-09T14:13:12.369Z,3.05
2024-05-09T14:15:39.493Z,4.65
2024-05-09T14:18:10.346Z,2.97
2024-05-09T14:20:39.284Z,2.97
2024-05-09T14:23:06.473Z,1.95
2024-05-09T14:25:36.593Z,2.67
2024-05-09T14:28:06.383Z,2.47
2024-05-09T14:30:37.426Z,2.28
2024-05-09T14:33:06.769Z,3.10
2024-05-09T14:35:34.934Z,2.28
2024-05-09T14:38:03.102Z,2.65
2024-05-09T14:40:40.336Z,3.70
2024-05-09T14:43:14.743Z,3.15
2024-05-09T14:45:43.389Z,2.20
2024-05-09T14:48:11.839Z,1.88
2024-05-09T14:50:40.429Z,3.47
2024-05-09T14:53:09.454Z,3.28
2024-05-09T14:55:37.825Z,3.50
2024-05-09T14:58:12.574Z,3.42
2024-05-09T15:00:46.164Z,3.92
2024-05-09T15:03:21.374Z,3.42
2024-05-09T15:05:50.530Z,4.50
2024-05-09T15:08:19.483Z,3.15
2024-05-09T15:10:46.700Z,5.93
2024-05-09T15:13:16.422Z,2.90
2024-05-09T15:15:44.315Z,4.38
2024-05-09T15:18:11.745Z,3.42
2024-05-09T15:23:07.536Z,3.40
2024-05-09T15:25:36.303Z,3.40
2024-05-09T15:28:07.363Z,2.83
2024-05-09T15:30:35.238Z,3.47
2024-05-09T15:33:06.703Z,3.47
2024-05-09T15:35:35.362Z,4.75
2024-05-09T15:38:03.245Z,3.70
2024-05-09T15:40:37.658Z,3.53
2024-05-09T15:43:07.922Z,3.85
2024-05-09T15:45:35.587Z,3.38
2024-05-09T15:48:03.472Z,3.85
2024-05-09T15:50:37.440Z,3.78
2024-05-09T15:53:09.577Z,4.63
2024-05-09T15:55:37.101Z,4.25
2024-05-09T15:58:05.377Z,5.43
2024-05-09T16:00:38.685Z,3.45
2024-05-09T16:03:10.975Z,3.17
2024-05-09T16:05:38.717Z,3.03
2024-05-09T16:08:07.232Z,3.20
2024-05-09T16:10:35.121Z,4.57
2024-05-09T16:13:03.873Z,4.43
2024-05-09T16:15:31.564Z,4.05
2024-05-09T16:17:59.273Z,3.47
2024-05-09T16:20:34.714Z,4.32
2024-05-09T16:23:07.563Z,4.85
2024-05-09T16:25:34.653Z,3.63
2024-05-09T16:28:05.768Z,3.67
2024-05-09T16:30:36.030Z,4.32
2024-05-09T16:33:05.115Z,3.90
2024-05-09T16:35:32.917Z,4.75
2024-05-09T16:38:02.170Z,4.38
2024-05-09T16:40:36.596Z,3.58
2024-05-09T16:43:07.180Z,4.75
2024-05-09T16:45:34.296Z,3.17
2024-05-09T16:48:01.640Z,4.13
2024-05-09T16:50:33.001Z,5.03
2024-05-09T16:53:02.671Z,3.35
2024-05-09T16:55:29.635Z,3.25
2024-05-09T16:57:57.374Z,2.72
2024-05-09T17:00:35.940Z,3.33
2024-05-09T17:03:09.622Z,3.35
2024-05-09T17:05:37.112Z,4.43
2024-05-09T17:08:04.540Z,5.60
2024-05-09T17:10:34.164Z,4.05
2024-05-09T17:13:04.038Z,4.05
2024-05-09T17:15:32.315Z,4.40
2024-05-09T17:18:01.287Z,4.40
2024-05-09T17:20:33.240Z,4.50
2024-05-09T17:23:03.720Z,5.10
2024-05-09T17:25:32.678Z,5.22
2024-05-09T17:28:06.392Z,5.20
2024-05-09T17:30:36.604Z,8.82
2024-05-09T17:33:06.491Z,6.18
2024-05-09T17:35:34.442Z,6.40
2024-05-09T17:38:01.716Z,5.18
2024-05-09T17:40:34.949Z,5.85
2024-05-09T17:43:05.044Z,5.65
2024-05-09T17:45:32.780Z,5.63
2024-05-09T17:48:00.148Z,9.05
2024-05-09T17:50:34.752Z,6.00
2024-05-09T17:53:04.045Z,6.40
2024-05-09T17:55:30.760Z,6.93
2024-05-09T17:57:57.706Z,5.72
2024-05-09T18:00:36.219Z,5.45
2024-05-09T18:03:07.404Z,4.78
2024-05-09T18:05:38.052Z,4.45
2024-05-09T18:08:08.671Z,5.57
2024-05-09T18:10:38.641Z,6.38
2024-05-09T18:13:10.933Z,3.70
2024-05-09T18:15:39.027Z,5.30
2024-05-09T18:18:07.559Z,4.93
2024-05-09T18:20:42.163Z,4.30
2024-05-09T18:23:17.191Z,4.85
2024-05-09T18:25:45.285Z,4.32
2024-05-09T18:28:12.180Z,5.50
2024-05-09T18:30:40.381Z,5.10
2024-05-09T18:33:10.872Z,5.68
2024-05-09T18:35:37.985Z,4.18
2024-05-09T18:38:05.485Z,4.65
2024-05-09T18:40:36.135Z,7.03
2024-05-09T18:43:07.339Z,5.45
2024-05-09T18:45:36.578Z,4.40
2024-05-09T18:48:06.040Z,3.95
2024-05-09T18:50:37.573Z,4.90
2024-05-09T18:53:06.958Z,5.35
2024-05-09T18:55:33.990Z,6.07
2024-05-09T18:58:01.046Z,4.55
2024-05-09T19:00:34.528Z,5.22
2024-05-09T19:03:08.097Z,5.70
2024-05-09T19:05:36.409Z,4.97
2024-05-09T19:08:03.664Z,6.03
2024-05-09T19:10:34.408Z,4.78
2024-05-09T19:13:08.004Z,4.55
2024-05-09T19:15:38.608Z,6.60
2024-05-09T19:18:07.178Z,6.65
2024-05-09T19:20:35.990Z,5.57
2024-05-09T19:23:04.829Z,6.45
2024-05-09T19:25:32.752Z,5.65
2024-05-09T19:28:00.894Z,7.45
2024-05-09T19:30:37.659Z,7.68
2024-05-09T19:33:08.568Z,6.60
2024-05-09T19:35:35.776Z,6.95
2024-05-09T19:38:02.799Z,6.30
2024-05-09T19:40:32.547Z,7.55
2024-05-09T19:43:02.473Z,6.85
2024-05-09T19:45:30.149Z,6.38
2024-05-09T19:47:57.261Z,8.40
2024-05-09T19:50:32.431Z,7.97
2024-05-09T19:53:07.528Z,8.23
2024-05-09T19:55:34.783Z,9.77
2024-05-09T19:58:06.872Z,8.77
2024-05-09T20:00:39.345Z,11.57
2024-05-09T20:03:09.278Z,9.07
2024-05-09T20:05:37.400Z,9.25
2024-05-09T20:08:05.182Z,11.18
2024-05-09T20:10:34.191Z,9.40
2024-05-09T20:13:03.806Z,9.73
2024-05-09T20:15:31.944Z,10.38
2024-05-09T20:17:58.727Z,11.40
2024-05-09T20:20:33.755Z,13.30
2024-05-09T20:23:06.302Z,10.73
2024-05-09T20:25:33.159Z,10.35
2024-05-09T20:28:01.373Z,10.73
2024-05-09T20:30:32.691Z,11.68
2024-05-09T20:33:07.025Z,11.57
2024-05-09T20:35:35.351Z,11.68
2024-05-09T20:38:03.220Z,11.98
2024-05-09T20:40:34.980Z,12.95
2024-05-09T20:43:05.988Z,12.65
2024-05-09T20:45:33.696Z,14.55
2024-05-09T20:48:00.766Z,11.65
2024-05-09T20:50:36.609Z,13.98
2024-05-09T20:53:13.057Z,13.93
2024-05-09T20:55:41.174Z,12.40
2024-05-09T20:58:08.850Z,12.88
2024-05-09T21:00:40.234Z,15.18
2024-05-09T21:03:11.407Z,13.90
2024-05-09T21:05:39.084Z,13.77
2024-05-09T21:08:06.822Z,14.93
2024-05-09T21:10:35.134Z,13.40
2024-05-09T21:13:03.279Z,12.93
2024-05-09T21:15:31.069Z,11.15
2024-05-09T21:17:57.854Z,12.55
2024-05-09T21:20:30.977Z,11.18
2024-05-09T21:22:59.359Z,11.68
2024-05-09T21:25:26.270Z,10.00
2024-05-09T21:30:31.631Z,12.13
2024-05-09T21:33:08.313Z,12.07
2024-05-09T21:35:35.629Z,13.13
2024-05-09T21:40:34.300Z,12.05
2024-05-09T21:43:03.298Z,14.10
2024-05-09T21:45:30.208Z,14.68
2024-05-09T21:47:57.494Z,15.23
2024-05-09T21:50:32.222Z,16.02
2024-05-09T21:53:06.140Z,13.45
2024-05-09T21:55:33.022Z,15.65
2024-05-09T21:58:00.307Z,16.27
2024-05-09T22:00:34.710Z,16.30
2024-05-09T22:03:04.874Z,15.35
2024-05-09T22:05:31.994Z,15.40
2024-05-09T22:07:59.220Z,14.98
2024-05-09T22:13:01.859Z,16.88
2024-05-09T22:15:28.966Z,15.13
2024-05-09T22:17:57.388Z,16.80
2024-05-09T22:20:34.128Z,16.85
2024-05-09T22:23:04.604Z,15.82
2024-05-09T22:25:32.316Z,15.73
2024-05-09T22:28:01.233Z,15.95
2024-05-09T22:30:35.656Z,16.02
2024-05-09T22:33:08.031Z,18.15
2024-05-09T22:35:35.223Z,16.75
2024-05-09T22:40:42.147Z,16.83
2024-05-09T22:43:18.413Z,17.90
2024-05-09T22:45:46.739Z,14.75
2024-05-09T22:48:13.679Z,16.67
2024-05-09T22:50:41.315Z,13.25
2024-05-09T22:53:08.032Z,16.52
2024-05-09T22:55:34.702Z,17.35
2024-05-09T23:00:31.810Z,16.00
2024-05-09T23:03:00.956Z,15.30
2024-05-09T23:05:28.321Z,16.83
2024-05-09T23:07:55.976Z,16.52
2024-05-09T23:10:30.897Z,15.15
2024-05-09T23:13:01.940Z,14.95
2024-05-09T23:15:28.838Z,13.90
2024-05-09T23:17:55.624Z,19.50
2024-05-09T23:20:33.393Z,15.13
2024-05-09T23:23:05.537Z,16.60
2024-05-09T23:25:32.462Z,16.45
2024-05-09T23:27:59.834Z,18.20
2024-05-09T23:30:37.028Z,16.92
2024-05-09T23:33:07.422Z,14.93
2024-05-09T23:35:34.418Z,16.17
2024-05-09T23:38:01.342Z,18.58
2024-05-09T23:43:08.197Z,15.38
2024-05-09T23:45:35.312Z,16.15
2024-05-09T23:48:02.632Z,18.85
2024-05-09T23:50:35.078Z,19.35
2024-05-09T23:53:06.682Z,15.18
2024-05-09T23:55:34.365Z,12.60
2024-05-09T23:58:01.147Z,12.75
